Dothan, AL

2:09 PM CDT on September 20, 2014 (GMT -0500)
South Dothan | Change Station
CLOSE
Current Station
Personal Weather Station
Location: Dothan, AL
Elevation: 305 ft
Nearby Weather Stations

Elev 305 ft 31.18 °N, 85.37 °W | Updated 1 minute ago

Overcast
Overcast
75.3 °F
Feels Like 77 °F
N
6.3
Wind Variable Wind from NNE

Today
High -- | Low -- °F
--% Chance of Precip.
Yesterday
High -- | Low -- °F
Precip. -- in
6:28 AM 6:40 PM
Waning Crescent, 11% visible
Pressure 30.03 in
Visibility 10.0 miles
Clouds Few 3000 ft
Overcast 3800 ft
Heat Index 77 °F
Dew Point 66 °F
Humidity 73%
Rainfall 0.00 in
Snow Depth Not available.
UV 3 out of 12
Pollen 7.80 out of 12
Air Quality Not available.
Flu Activity Not available.
METAR KDHN 201853Z 05011KT 10SM FEW030 OVC038 27/19 A3004 RMK AO2 SLP168 T02670189

More Conditions Fewer Conditions

Pressure 30.03 in
Visibility 10.0 miles
Clouds Few 3000 ft
Overcast 3800 ft
Heat Index 77 °F
Dew Point 66 °F
Humidity 73%
Rainfall 0.00 in
Snow Depth Not available.
UV 3 out of 12
Pollen 7.80 out of 12
Air Quality Not available.
Flu Activity Not available.
METAR KDHN 201853Z 05011KT 10SM FEW030 OVC038 27/19 A3004 RMK AO2 SLP168 T02670189

More Conditions Fewer Conditions

10-Day Weather Forecast

Almanac

Astronomy

Sep. 20, 2014 Rise Set
Actual Time 6:28 AM CDT 6:40 PM CDT
Civil Twilight 6:04 AM CDT 7:05 PM CDT
Nautical Twilight 5:36 AM CDT 7:33 PM CDT
Astronomical Twilight 5:07 AM CDT 8:01 PM CDT
Moon 3:17 AM CDT 4:35 PM CDT
Length of Visible Light 13h 00m
Length of Day
12h 12m
Tomorrow will be 1m 53s shorter.
Waning Crescent, 11% of the Moon is Illuminated
Today
Waning Crescent
Sep 24
New
Oct 1
First Quarter
Oct 8
Full
Oct 15
Last Quarter

Today's Extremes

State Highs State Lows

Community

WunderPhotos

Upload Photos

1,754,924 photos uploaded!

WunderBlogs® & News

Nearby

Snow Depth

Station Depth Elevation
No new snow has been reported.

Earthquake Activity

City Distance Mag. Time & Date
No recent earthquake activity has been reported nearby.
Minimum magnitude displayed is 2.5.

Coastal Water Temperatures

Place Temperature
No Stations Reporting

Nearby Weather Stations